Bellview, Illinois
Current Conditions -  °F | °C
As of 7:54 AM on Saturday 25 Oct 2014 (Local Time) from KPIA Reporting Station
Moderate Fog Moderate Fog  
Wind Chill: 56°   Ceiling: 200
Heat Index: 56°   Visibility: 0.12mi
Dew Point: 53°   Wind: 6mph
Humidity: 90%   Direction: 220°SW
Pressure: 29.99"   Gusts: NA
Location:  40.7064°N, 89.6585°W
Report Text: KPIA 251254Z 22005KT 1/8SM R13/0700V0800FT FG VV002 13/12 A2999 RMK AO2 SLP154 T01330117
Loading
Personal Weather Stations






























Interactive Weather Map New forecast layout! Learn more

10-Day Weather Forecast

Advertisements
Track Severe Weather on mobile